Historyczne dane pomiarowe

Dodano dane terminowe – wersja testowa.

Dane z okresu 1951-2019

Wersja bazy: 1.34 [2019-03-16, lista zmian], aktualizacja planowana na 2019-04-15

Dane meteo z obszaru Polski uzyskane na podstawie danych udostępnionych przez Instytut Meteorologii i Gospodarki Wodnej – Państwowy Instytut Badawczy.

 

Wybierz Datę:    

       

TemperaturaWilgotnośćWiatrCiśnienieOpadyŚniegCzas trwania zjawisk
 Stacja t tx tn tng RH VA  wxwx mslp ppp RRR   cm mm wxwxwxwxwxwxwx
1994-08-14 17.1 22.9 12.8 12.1 73.0- 5.3 3.7---- 0.0------------
1994-08-13 17.7 23.4 14.9 10.1 83.3- 7.3 3.0---- 0.2------------
1994-08-12 16.1 20.4 14.9 10.1 87.3- 6.7 2.3---- 0.3------------
1994-08-11 19.3 25.9 15.4 15.0 87.0- 7.3 1.7---- 4.5------------
1994-08-10 20.9 26.9 14.9 13.1 76.3- 5.0 1.7---- 0.0------------
1994-08-09 18.2 25.9 14.4 10.1 88.5- 6.7 0.7---- 7.0------------
1994-08-08 22.5 28.4 17.4 17.0 81.3- 6.3 0.7---- 1.0------------
1994-08-07 25.1 33.5 15.4 13.1 75.5- 5.0 1.7---- 10.2------------
1994-08-06 25.7 35.5 13.3 12.6 68.8- 0.0 0.0---- 1.2------------
1994-08-05 23.6 31.5 15.9 15.5 70.8- 1.7 0.0---- 0.0------------
1994-08-04 23.1 29.4 18.4 16.5 83.0- 3.0 1.0---- 0.0------------
1994-08-03 26.3 33.5 18.4 14.5 72.8- 5.7 3.0---- 18.6------------
1994-08-02 25.3 34.0 15.3 9.6 67.5- 4.0 0.3---- 0.0------------
1994-08-01 28.0 37.6 15.4 14.6 73.3- 1.7 0.7---- 0.0------------
1994-07-31 28.6 37.5 15.4 12.6 63.5- 2.3 1.3---- 0.0------------
1994-07-30 27.2 37.5 14.9 12.1 69.8- 2.7 1.0---- 0.0------------
1994-07-29 27.7 36.5 13.3 10.1 63.5- 0.0 0.0---- 0.0------------
1994-07-28 26.9 35.5 13.3 12.6 63.0- 1.7 0.0---- 0.0------------
1994-07-27 26.0 35.5 13.3 9.6 65.5- 1.3 0.3---- 0.0------------
1994-07-26 26.6 35.5 13.3 11.6 64.5- 3.0 0.7---- 0.0------------
1994-07-25 25.4 32.5 12.3 9.6 60.5- 2.0 0.7---- 0.0------------
1994-07-24 23.9 31.0 11.3 8.6 62.3- 0.3 0.7---- 0.0------------
1994-07-23 22.2 29.4 11.3 8.6 66.5- 2.7 0.3---- 0.0------------
1994-07-22 20.9 27.9 10.3 8.1 65.3- 0.3 0.7---- 0.0------------
1994-07-21 19.5 26.9 10.3 8.2 69.5- 0.0 1.0---- 0.0------------
1994-07-20 17.3 24.4 11.3 7.2 69.5- 1.7 2.0---- 0.0------------
1994-07-19 16.4 23.9 11.3 10.8 80.3- 4.3 0.7---- 0.0------------
1994-07-18 19.2 26.4 14.9 14.7 83.5- 6.7 1.7---- 8.2------------
1994-07-17 22.3 29.9 12.8 12.2 81.0- 5.7 0.7---- 4.0------------
1994-07-16 23.9 31.5 12.8 11.8 68.3- 2.7 1.0---- 0.0------------
1994-07-15 20.8 29.4 13.3 9.8 81.0- 4.3 1.0---- 0.0------------
1994-07-14 19.9 29.4 13.8 10.8 86.5- 6.0 2.7---- 0.3------------
1994-07-13 21.2 29.9 12.3 7.7 72.8- 3.0 1.3---- 0.0------------
1994-07-12 20.1 28.9 13.8 12.2 71.0- 6.3 2.7---- 0.0------------
1994-07-11 17.9 24.4 11.3 10.3 79.3- 4.7 4.3---- 0.0------------
1994-07-10 14.4 22.9 10.8 10.8 86.8- 6.0 2.0---- 0.0------------
1994-07-09 15.8 19.4 12.3 8.7 79.0- 8.0 4.0---- 3.8------------
1994-07-08 18.4 22.9 10.3 9.8 74.3- 7.3 1.0---- 0.0------------
1994-07-07 19.5 27.9 10.3 6.7 68.8- 4.7 0.3---- 0.3------------
1994-07-06 19.3 26.4 11.3 7.7 70.5- 2.3 0.3---- 0.0------------
1994-07-05 20.8 28.4 11.3 7.7 67.0- 6.7 1.7---- 0.1------------
1994-07-04 19.6 28.4 10.3 5.7 67.5- 1.0 0.3---- 0.0------------
1994-07-03 17.8 26.4 8.8 4.1 69.3- 1.0 0.7---- 0.0------------
1994-07-02 16.9 24.4 9.3 5.2 71.0- 0.0 2.7---- 0.0------------
1994-07-01 18.9 24.4 14.4 13.7 70.8- 2.7 1.3---- 0.0------------
1994-06-30 21.0 29.9 15.9 15.2 82.5- 5.3 3.3---- 2.3------------
1994-06-29 24.4 32.5 15.4 11.3 66.5- 0.3 2.0---- 0.0------------
1994-06-28 24.6 29.9 17.9 14.2 71.3- 0.3 0.0---- 0.0------------
1994-06-27 25.8 32.5 14.9 13.7 64.5- 2.0 1.3---- 0.0------------
1994-06-26 20.1 28.4 7.8 4.6 66.3- 1.3 1.3---- 0.0------------
1994-06-25 15.0 22.9 4.9 4.1 69.0- 0.0 2.7---- 0.0------------
1994-06-24 15.0 20.9 8.3 7.7 60.3- 0.0 6.0---- 0.0------------
1994-06-23 17.9 23.4 16.4 16.2 66.0- 5.0 5.3---- 0.0------------
1994-06-22 17.9 27.4 8.8 5.7 73.5- 2.3 1.7---- 0.5------------
1994-06-21 14.1 18.4 6.9 3.6 74.0- 3.3 0.3---- 0.0------------
1994-06-20 16.7 22.4 12.3 9.3 74.3- 4.0 2.7---- 0.0------------
1994-06-19 16.4 22.4 9.8 9.8 74.8- 6.0 0.3---- 0.0------------
1994-06-18 12.0 19.9 4.9 1.6 75.5- 5.0 1.3---- 5.6------------
1994-06-17 15.3 19.3 9.3 8.7 73.0- 6.0 5.7---- 0.0------------
1994-06-16 15.9 21.9 7.8 7.2 74.0- 5.3 2.0---- 3.7------------
345.7 ms

 

Źródłem pochodzenia danych jest Instytut Meteorologii i Gospodarki Wodnej – Państwowy Instytut Badawczy. Dane Instytutu Meteorologii i Gospodarki Wodnej – Państwowego Instytutu Badawczego zostały przetworzone.

Dane źródłowe można odnaleźć na stronie https://dane.imgw.pl